Time;durP1;ratioP1;P1;durP2;ratioP2;P2;SDS_P1;SDS_P2;PMS_P1;PMS_P2;Temp;Humidity;BMP_temperature;BMP_pressure;BME280_temperature;BME280_humidity;BME280_pressure;Samples;Min_cycle;Max_cycle;Signal;HPM_P1;HPM_P2
2023/01/24 00:03:42;;;;;;;;;;;;;;;;;;10296547;28;19967;-71
2023/01/24 00:08:40;;;;;;;;;;;;;;;;;;10293694;28;19955;-70
2023/01/24 00:13:38;;;;;;;;;;;;;;;;;;10295638;28;19951;-70
2023/01/24 00:18:36;;;;;;;;;;;;;;;;;;10295224;28;20440;-71
2023/01/24 00:23:34;;;;;;;;;;;;;;;;;;10296207;28;19967;-71
2023/01/24 00:28:32;;;;;;;;;;;;;;;;;;10295172;28;19967;-71
2023/01/24 00:33:29;;;;;;;;;;;;;;;;;;10294531;28;20393;-71
2023/01/24 00:38:27;;;;;;;;;;;;;;;;;;10303068;28;19920;-71
2023/01/24 00:43:26;;;;;;;;;;;;;;;;;;10278151;28;19967;-71
2023/01/24 00:48:24;;;;;;;;;;;;;;;;;;10290888;28;19927;-71
2023/01/24 00:53:22;;;;;;;;;;;;;;;;;;10301602;28;20759;-70
2023/01/24 00:58:20;;;;;;;;;;;;;;;;;;10296126;28;19955;-70
2023/01/24 01:03:18;;;;;;;;;;;;;;;;;;10300878;28;19963;-70
2023/01/24 01:08:16;;;;;;;;;;;;;;;;;;10296171;28;19964;-71
2023/01/24 01:13:14;;;;;;;;;;;;;;;;;;10295151;28;20381;-71
2023/01/24 01:18:12;;;;;;;;;;;;;;;;;;10296343;28;19920;-71
2023/01/24 01:23:10;;;;;;;;;;;;;;;;;;10292148;28;20345;-71
2023/01/24 01:28:08;;;;;;;;;;;;;;;;;;10291963;28;19921;-71
2023/01/24 01:33:06;;;;;;;;;;;;;;;;;;10299706;28;19920;-70
2023/01/24 01:38:03;;;;;;;;;;;;;;;;;;10291792;28;20384;-70
2023/01/24 01:43:01;;;;;;;;;;;;;;;;;;10292275;28;19951;-71
2023/01/24 01:48:00;;;;;;;;;;;;;;;;;;10292754;28;19960;-71
2023/01/24 01:52:58;;;;;;;;;;;;;;;;;;10290295;28;20440;-71
2023/01/24 01:57:56;;;;;;;;;;;;;;;;;;10289529;28;19955;-69
2023/01/24 02:02:54;;;;;;;;;;;;;;;;;;10298802;28;20362;-70
2023/01/24 02:07:52;;;;;;;;;;;;;;;;;;10298806;28;19928;-70
2023/01/24 02:12:49;;;;;;;;;;;;;;;;;;10290367;28;19963;-71
2023/01/24 02:17:47;;;;;;;;;;;;;;;;;;10291573;28;20000;-71
2023/01/24 02:22:45;;;;;;;;;;;;;;;;;;10290872;28;19952;-71
2023/01/24 02:27:43;;;;;;;;;;;;;;;;;;10297895;28;19920;-70
2023/01/24 02:32:41;;;;;;;;;;;;;;;;;;10305640;28;19925;-71
2023/01/24 02:37:39;;;;;;;;;;;;;;;;;;10290226;28;19960;-70
2023/01/24 02:42:37;;;;;;;;;;;;;;;;;;10290611;28;20355;-70
2023/01/24 02:47:34;;;;;;;;;;;;;;;;;;10289634;28;19928;-71
2023/01/24 03:03:05;;;;;;;;;;;;;;;;;;10289070;28;19962;-70
2023/01/24 03:08:03;;;;;;;;;;;;;;;;;;10292690;28;19963;-70
2023/01/24 03:44:34;;;;;;;;;;;;;;;;;;10295829;28;19983;-71
2023/01/24 03:54:48;;;;;;;;;;;;;;;;;;10294401;28;19956;-69
2023/01/24 03:59:46;;;;;;;;;;;;;;;;;;10296554;28;20416;-70
2023/01/24 04:09:59;;;;;;;;;;;;;;;;;;10297155;28;19920;-70
2023/01/24 04:15:00;;;;;;;;;;;;;;;;;;10277022;28;19963;-70
2023/01/24 04:19:58;;;;;;;;;;;;;;;;;;10302940;28;19967;-69
2023/01/24 04:24:56;;;;;;;;;;;;;;;;;;10305989;28;19963;-69
2023/01/24 04:29:58;;;;;;;;;;;;;;;;;;10300729;28;19964;-69
2023/01/24 04:34:56;;;;;;;;;;;;;;;;;;10292831;28;19967;-70
2023/01/24 04:40:13;;;;;;;;;;;;;;;;;;10291010;28;19921;-70
2023/01/24 04:45:10;;;;;;;;;;;;;;;;;;10306331;28;20530;-71
2023/01/24 04:50:09;;;;;;;;;;;;;;;;;;10293712;28;19967;-71
2023/01/24 04:55:06;;;;;;;;;;;;;;;;;;10295034;28;19964;-71
2023/01/24 05:00:05;;;;;;;;;;;;;;;;;;10295155;28;20949;-69
2023/01/24 05:05:02;;;;;;;;;;;;;;;;;;10301183;28;19950;-69
2023/01/24 05:10:01;;;;;;;;;;;;;;;;;;10294160;28;19968;-70
2023/01/24 05:14:59;;;;;;;;;;;;;;;;;;10300557;28;19963;-69
2023/01/24 05:19:57;;;;;;;;;;;;;;;;;;10276274;28;19924;-71
2023/01/24 05:24:54;;;;;;;;;;;;;;;;;;10285848;28;19972;-70
2023/01/24 05:29:52;;;;;;;;;;;;;;;;;;10295824;28;20381;-70
2023/01/24 05:34:50;;;;;;;;;;;;;;;;;;10292045;28;19975;-69
2023/01/24 05:39:48;;;;;;;;;;;;;;;;;;10290633;28;19932;-69
2023/01/24 05:44:46;;;;;;;;;;;;;;;;;;10280301;28;19959;-71
2023/01/24 05:49:44;;;;;;;;;;;;;;;;;;10284969;28;19965;-70
2023/01/24 05:54:42;;;;;;;;;;;;;;;;;;10272885;28;19986;-70
2023/01/24 05:59:57;;;;;;;;;;;;;;;;;;10291257;28;19967;-71
2023/01/24 06:04:55;;;;;;;;;;;;;;;;;;10272215;28;19960;-70
2023/01/24 06:09:53;;;;;;;;;;;;;;;;;;10264949;28;19972;-69
2023/01/24 06:14:51;;;;;;;;;;;;;;;;;;10271220;28;19968;-71
2023/01/24 06:19:49;;;;;;;;;;;;;;;;;;10287425;28;19962;-71
2023/01/24 06:24:47;;;;;;;;;;;;;;;;;;10271940;28;19959;-70
2023/01/24 06:29:58;;;;;;;;;;;;;;;;;;10283038;28;19979;-71
2023/01/24 06:34:59;;;;;;;;;;;;;;;;;;10259096;28;19956;-71
2023/01/24 06:39:57;;;;;;;;;;;;;;;;;;10267195;28;19952;-70
2023/01/24 06:44:55;;;;;;;;;;;;;;;;;;10273746;28;19968;-70
2023/01/24 06:49:53;;;;;;;;;;;;;;;;;;10283190;28;19956;-70
2023/01/24 06:54:51;;;;;;;;;;;;;;;;;;10280767;28;19963;-70
2023/01/24 06:59:48;;;;;;;;;;;;;;;;;;10275784;28;19979;-70
2023/01/24 07:04:46;;;;;;;;;;;;;;;;;;10275497;28;20564;-71
2023/01/24 07:09:44;;;;;;;;;;;;;;;;;;10291931;28;19975;-71
2023/01/24 07:14:43;;;;;;;;;;;;;;;;;;10271775;28;19971;-70
2023/01/24 07:19:41;;;;;;;;;;;;;;;;;;10274360;28;20361;-70
2023/01/24 07:24:38;;;;;;;;;;;;;;;;;;10272446;28;19956;-70
2023/01/24 07:29:36;;;;;;;;;;;;;;;;;;10274161;28;20070;-70
2023/01/24 07:34:34;;;;;;;;;;;;;;;;;;10287334;28;19948;-70
2023/01/24 07:39:32;;;;;;;;;;;;;;;;;;10295947;28;19960;-71
2023/01/24 07:44:30;;;;;;;;;;;;;;;;;;10275237;28;19968;-69
2023/01/24 07:49:28;;;;;;;;;;;;;;;;;;10276154;28;20369;-70
2023/01/24 07:54:26;;;;;;;;;;;;;;;;;;10276848;28;19948;-70
2023/01/24 07:59:24;;;;;;;;;;;;;;;;;;10278948;28;20402;-71
2023/01/24 08:04:35;;;;;;;;;;;;;;;;;;10283554;28;19968;-71
2023/01/24 08:09:32;;;;;;;;;;;;;;;;;;10275588;28;19960;-70
2023/01/24 08:14:30;;;;;;;;;;;;;;;;;;10269710;28;19956;-71
2023/01/24 08:19:28;;;;;;;;;;;;;;;;;;10263278;28;20389;-70
2023/01/24 08:24:46;;;;;;;;;;;;;;;;;;10268200;28;19967;-70
2023/01/24 08:29:44;;;;;;;;;;;;;;;;;;10268559;28;19963;-70
2023/01/24 08:34:42;;;;;;;;;;;;;;;;;;10268733;28;19960;-70
2023/01/24 08:39:40;;;;;;;;;;;;;;;;;;10269510;28;19963;-71
2023/01/24 08:44:37;;;;;;;;;;;;;;;;;;10273922;28;19971;-70
2023/01/24 08:49:35;;;;;;;;;;;;;;;;;;10276954;28;19956;-71
2023/01/24 08:54:35;;;;;;;;;;;;;;;;;;10275938;28;19944;-72
2023/01/24 08:59:33;;;;;;;;;;;;;;;;;;10286851;28;19968;-69
2023/01/24 09:04:31;;;;;;;;;;;;;;;;;;10292927;28;19964;-70
2023/01/24 09:09:29;;;;;;;;;;;;;;;;;;10281842;28;19964;-70
2023/01/24 09:14:26;;;;;;;;;;;;;;;;;;10270682;28;20007;-70
2023/01/24 09:19:26;;;;;;;;;;;;;;;;;;10272111;28;19967;-71
2023/01/24 09:24:24;;;;;;;;;;;;;;;;;;10290497;28;19956;-70
2023/01/24 09:29:22;;;;;;;;;;;;;;;;;;10298316;28;19963;-71
2023/01/24 09:34:20;;;;;;;;;;;;;;;;;;10291476;28;20405;-70
2023/01/24 09:39:18;;;;;;;;;;;;;;;;;;10289340;28;20767;-70
2023/01/24 09:44:16;;;;;;;;;;;;;;;;;;10291058;28;19956;-70
2023/01/24 09:49:13;;;;;;;;;;;;;;;;;;10287959;28;19944;-70
2023/01/24 09:54:11;;;;;;;;;;;;;;;;;;10268794;28;19956;-71
2023/01/24 09:59:10;;;;;;;;;;;;;;;;;;10267876;28;19951;-71
2023/01/24 10:04:08;;;;;;;;;;;;;;;;;;10282470;28;19964;-70
2023/01/24 10:09:07;;;;;;;;;;;;;;;;;;10262983;28;20378;-71
2023/01/24 10:14:05;;;;;;;;;;;;;;;;;;10266387;28;19963;-70
2023/01/24 10:19:03;;;;;;;;;;;;;;;;;;10268422;28;19962;-70
2023/01/24 10:24:00;;;;;;;;;;;;;;;;;;10293043;28;19968;-69
2023/01/24 10:28:58;;;;;;;;;;;;;;;;;;10268260;28;20451;-70
2023/01/24 10:33:57;;;;;;;;;;;;;;;;;;10271997;28;19960;-71
2023/01/24 10:38:55;;;;;;;;;;;;;;;;;;10271507;28;19962;-70
2023/01/24 10:43:53;;;;;;;;;;;;;;;;;;10275931;28;19956;-70
2023/01/24 10:48:51;;;;;;;;;;;;;;;;;;10274794;28;19964;-70
2023/01/24 10:53:49;;;;;;;;;;;;;;;;;;10273005;28;20417;-70
2023/01/24 10:58:46;;;;;;;;;;;;;;;;;;10270464;28;20402;-70
2023/01/24 11:03:44;;;;;;;;;;;;;;;;;;10271293;28;19928;-70
2023/01/24 11:08:42;;;;;;;;;;;;;;;;;;10272380;28;19960;-70
2023/01/24 11:13:40;;;;;;;;;;;;;;;;;;10272219;28;20329;-70
2023/01/24 11:18:38;;;;;;;;;;;;;;;;;;10265172;28;19948;-69
2023/01/24 11:23:36;;;;;;;;;;;;;;;;;;10264457;28;19952;-71
2023/01/24 11:28:34;;;;;;;;;;;;;;;;;;10264722;28;19968;-71
2023/01/24 11:33:34;;;;;;;;;;;;;;;;;;10272068;28;20390;-70
2023/01/24 11:38:32;;;;;;;;;;;;;;;;;;10272876;28;19952;-70
2023/01/24 11:43:29;;;;;;;;;;;;;;;;;;10272485;28;19963;-70
2023/01/24 11:48:27;;;;;;;;;;;;;;;;;;10271653;28;19948;-69
2023/01/24 11:53:25;;;;;;;;;;;;;;;;;;10273958;28;20366;-71
2023/01/24 11:58:23;;;;;;;;;;;;;;;;;;10274251;28;20389;-71
2023/01/24 12:03:21;;;;;;;;;;;;;;;;;;10273820;28;19960;-71
2023/01/24 12:08:20;;;;;;;;;;;;;;;;;;10275847;28;20050;-71
2023/01/24 12:13:17;;;;;;;;;;;;;;;;;;10266861;28;19964;-70
2023/01/24 12:18:15;;;;;;;;;;;;;;;;;;10271420;28;20346;-69
2023/01/24 12:23:13;;;;;;;;;;;;;;;;;;10271988;28;19960;-69
2023/01/24 12:28:11;;;;;;;;;;;;;;;;;;10287249;28;19985;-70
2023/01/24 12:33:09;;;;;;;;;;;;;;;;;;10266282;28;19948;-70
2023/01/24 12:38:07;;;;;;;;;;;;;;;;;;10282740;28;19956;-70
2023/01/24 12:43:06;;;;;;;;;;;;;;;;;;10276042;28;19948;-70
2023/01/24 12:48:04;;;;;;;;;;;;;;;;;;10282838;28;19966;-71
2023/01/24 12:53:01;;;;;;;;;;;;;;;;;;10295846;28;19963;-71
2023/01/24 12:57:59;;;;;;;;;;;;;;;;;;10275962;28;19967;-71
2023/01/24 13:02:57;;;;;;;;;;;;;;;;;;10272351;28;19956;-70
2023/01/24 13:07:55;;;;;;;;;;;;;;;;;;10273851;28;19967;-71
2023/01/24 13:12:53;;;;;;;;;;;;;;;;;;10282495;28;19964;-71
2023/01/24 13:17:51;;;;;;;;;;;;;;;;;;10277587;28;20346;-71
2023/01/24 13:22:49;;;;;;;;;;;;;;;;;;10280111;28;19979;-71
2023/01/24 13:27:47;;;;;;;;;;;;;;;;;;10268626;28;20338;-70
2023/01/24 13:32:45;;;;;;;;;;;;;;;;;;10279051;28;20030;-71
2023/01/24 13:37:42;;;;;;;;;;;;;;;;;;10289938;28;20046;-71
2023/01/24 13:42:41;;;;;;;;;;;;;;;;;;10291482;28;19958;-71
2023/01/24 13:47:39;;;;;;;;;;;;;;;;;;10290925;28;19948;-71
2023/01/24 13:52:38;;;;;;;;;;;;;;;;;;10288897;28;20008;-70
2023/01/24 13:57:38;;;;;;;;;;;;;;;;;;10291622;28;19956;-70
2023/01/24 14:02:36;;;;;;;;;;;;;;;;;;10291878;28;19963;-71
2023/01/24 14:07:34;;;;;;;;;;;;;;;;;;10298260;28;19963;-71
2023/01/24 14:12:32;;;;;;;;;;;;;;;;;;10291865;28;19962;-71
2023/01/24 14:17:29;;;;;;;;;;;;;;;;;;10289098;28;19963;-71
2023/01/24 14:22:27;;;;;;;;;;;;;;;;;;10290850;28;19970;-70
2023/01/24 14:27:26;;;;;;;;;;;;;;;;;;10291818;28;20373;-70
2023/01/24 14:32:24;;;;;;;;;;;;;;;;;;10291903;28;19967;-69
2023/01/24 14:37:22;;;;;;;;;;;;;;;;;;10291926;28;19963;-70
2023/01/24 14:42:21;;;;;;;;;;;;;;;;;;10290868;28;20352;-71
2023/01/24 14:47:19;;;;;;;;;;;;;;;;;;10290610;28;19963;-70
2023/01/24 14:52:17;;;;;;;;;;;;;;;;;;10290157;28;19960;-71
2023/01/24 14:57:18;;;;;;;;;;;;;;;;;;10290904;28;19979;-70
2023/01/24 15:02:16;;;;;;;;;;;;;;;;;;10288918;28;19966;-71
2023/01/24 15:07:14;;;;;;;;;;;;;;;;;;10295178;28;20401;-71
2023/01/24 15:12:11;;;;;;;;;;;;;;;;;;10298981;28;19987;-70
2023/01/24 15:17:10;;;;;;;;;;;;;;;;;;10298083;28;19964;-69
2023/01/24 15:22:08;;;;;;;;;;;;;;;;;;10295070;28;20265;-71
2023/01/24 15:27:07;;;;;;;;;;;;;;;;;;10299211;28;19964;-71
2023/01/24 15:32:05;;;;;;;;;;;;;;;;;;10297767;28;20377;-70
2023/01/24 15:37:03;;;;;;;;;;;;;;;;;;10298068;28;20305;-72
2023/01/24 15:52:32;;;;;;;;;;;;;;;;;;10292654;28;19964;-71
2023/01/24 15:57:30;;;;;;;;;;;;;;;;;;10288286;28;19974;-71
2023/01/24 16:02:28;;;;;;;;;;;;;;;;;;10291078;28;19964;-71
2023/01/24 16:07:26;;;;;;;;;;;;;;;;;;10269299;28;19963;-72
2023/01/24 16:12:24;;;;;;;;;;;;;;;;;;10278655;28;19955;-70
2023/01/24 16:17:22;;;;;;;;;;;;;;;;;;10294076;28;19971;-69
2023/01/24 16:22:20;;;;;;;;;;;;;;;;;;10289494;28;19969;-69
2023/01/24 16:27:18;;;;;;;;;;;;;;;;;;10275988;28;19963;-70
2023/01/24 16:32:17;;;;;;;;;;;;;;;;;;10290282;28;19971;-69
2023/01/24 16:37:17;;;;;;;;;;;;;;;;;;10292116;28;19960;-68
2023/01/24 16:42:15;;;;;;;;;;;;;;;;;;10292690;28;19959;-67
2023/01/24 16:47:14;;;;;;;;;;;;;;;;;;10287954;28;19960;-69
2023/01/24 16:52:13;;;;;;;;;;;;;;;;;;10265971;28;19975;-68
2023/01/24 16:57:16;;;;;;;;;;;;;;;;;;10268492;28;19975;-67
2023/01/24 17:02:14;;;;;;;;;;;;;;;;;;10269590;28;19947;-67
2023/01/24 17:07:13;;;;;;;;;;;;;;;;;;10264380;28;19964;-69
2023/01/24 17:12:14;;;;;;;;;;;;;;;;;;10275030;28;19994;-69
2023/01/24 17:17:11;;;;;;;;;;;;;;;;;;10265468;28;19960;-68
2023/01/24 17:22:09;;;;;;;;;;;;;;;;;;10257940;28;19959;-68
2023/01/24 17:27:07;;;;;;;;;;;;;;;;;;10271214;28;19975;-68
2023/01/24 17:32:06;;;;;;;;;;;;;;;;;;10268738;28;19966;-68
2023/01/24 17:37:05;;;;;;;;;;;;;;;;;;10256595;28;19967;-68
2023/01/24 17:42:04;;;;;;;;;;;;;;;;;;10255770;28;19959;-69
2023/01/24 17:47:04;;;;;;;;;;;;;;;;;;10254030;28;20036;-67
2023/01/24 17:52:02;;;;;;;;;;;;;;;;;;10265606;28;19963;-68
2023/01/24 17:57:01;;;;;;;;;;;;;;;;;;10262256;28;19960;-67
2023/01/24 18:01:59;;;;;;;;;;;;;;;;;;10271154;28;19967;-68
2023/01/24 18:06:57;;;;;;;;;;;;;;;;;;10276466;28;19971;-67
2023/01/24 18:11:55;;;;;;;;;;;;;;;;;;10252729;28;19956;-68
2023/01/24 18:16:54;;;;;;;;;;;;;;;;;;10247660;28;19964;-69
2023/01/24 18:21:52;;;;;;;;;;;;;;;;;;10256980;28;19960;-68
2023/01/24 18:26:52;;;;;;;;;;;;;;;;;;10262592;28;20505;-69
2023/01/24 18:31:50;;;;;;;;;;;;;;;;;;10267224;28;19949;-68
2023/01/24 18:36:49;;;;;;;;;;;;;;;;;;10253662;28;19975;-68
2023/01/24 18:41:48;;;;;;;;;;;;;;;;;;10278204;28;19960;-69
2023/01/24 18:46:46;;;;;;;;;;;;;;;;;;10281854;28;19968;-68
2023/01/24 18:51:49;;;;;;;;;;;;;;;;;;10279965;28;19921;-69
2023/01/24 18:56:50;;;;;;;;;;;;;;;;;;10281906;28;19959;-68
2023/01/24 19:01:49;;;;;;;;;;;;;;;;;;10275655;28;19960;-68
2023/01/24 19:06:50;;;;;;;;;;;;;;;;;;10281717;28;19956;-69
2023/01/24 19:11:49;;;;;;;;;;;;;;;;;;10292773;28;19968;-68
2023/01/24 19:16:49;;;;;;;;;;;;;;;;;;10284065;28;19952;-69
2023/01/24 19:21:49;;;;;;;;;;;;;;;;;;10288301;28;19971;-71
2023/01/24 19:26:50;;;;;;;;;;;;;;;;;;10282308;28;19967;-69
2023/01/24 19:31:51;;;;;;;;;;;;;;;;;;10275864;28;19964;-69
2023/01/24 19:36:50;;;;;;;;;;;;;;;;;;10290626;28;19967;-69
2023/01/24 19:41:50;;;;;;;;;;;;;;;;;;10294773;28;20353;-70
2023/01/24 19:46:50;;;;;;;;;;;;;;;;;;10289258;28;19967;-70
2023/01/24 19:51:48;;;;;;;;;;;;;;;;;;10278538;28;19963;-69
2023/01/24 19:56:50;;;;;;;;;;;;;;;;;;10278916;28;19951;-69
2023/01/24 20:01:48;;;;;;;;;;;;;;;;;;10279094;28;20801;-69
2023/01/24 20:06:48;;;;;;;;;;;;;;;;;;10286245;28;19959;-71
2023/01/24 20:11:47;;;;;;;;;;;;;;;;;;10290525;28;20005;-69
2023/01/24 20:16:47;;;;;;;;;;;;;;;;;;10268917;28;19956;-70
2023/01/24 20:21:46;;;;;;;;;;;;;;;;;;10280036;28;20397;-70
2023/01/24 20:26:44;;;;;;;;;;;;;;;;;;10281231;28;19967;-69
2023/01/24 20:31:45;;;;;;;;;;;;;;;;;;10293027;28;19960;-71
2023/01/24 20:36:46;;;;;;;;;;;;;;;;;;10289798;28;19970;-69
2023/01/24 20:41:45;;;;;;;;;;;;;;;;;;10284933;28;19964;-70
2023/01/24 20:46:43;;;;;;;;;;;;;;;;;;10293338;28;19970;-69
2023/01/24 20:51:41;;;;;;;;;;;;;;;;;;10292791;28;19952;-69
2023/01/24 20:56:40;;;;;;;;;;;;;;;;;;10293061;28;19963;-69
2023/01/24 21:01:38;;;;;;;;;;;;;;;;;;10292051;28;19964;-69
2023/01/24 21:06:36;;;;;;;;;;;;;;;;;;10280588;28;19963;-69
2023/01/24 21:11:34;;;;;;;;;;;;;;;;;;10272388;28;19979;-69
2023/01/24 21:16:32;;;;;;;;;;;;;;;;;;10271517;28;19952;-69
2023/01/24 21:21:30;;;;;;;;;;;;;;;;;;10271392;28;19959;-70
2023/01/24 21:26:28;;;;;;;;;;;;;;;;;;10270985;28;19960;-70
2023/01/24 21:31:28;;;;;;;;;;;;;;;;;;10270956;28;19971;-69
2023/01/24 21:36:27;;;;;;;;;;;;;;;;;;10271109;28;19971;-70
2023/01/24 21:46:40;;;;;;;;;;;;;;;;;;10274570;28;19970;-69
2023/01/24 21:51:38;;;;;;;;;;;;;;;;;;10287026;28;19967;-70
2023/01/24 22:01:51;;;;;;;;;;;;;;;;;;10268039;28;20375;-69
2023/01/24 22:06:49;;;;;;;;;;;;;;;;;;10264330;28;20409;-69
2023/01/24 22:11:47;;;;;;;;;;;;;;;;;;10265150;28;20394;-70
2023/01/24 22:16:45;;;;;;;;;;;;;;;;;;10264194;28;19964;-70
2023/01/24 22:21:43;;;;;;;;;;;;;;;;;;10279894;28;19956;-69
2023/01/24 22:26:41;;;;;;;;;;;;;;;;;;10286386;28;19955;-69
2023/01/24 22:31:38;;;;;;;;;;;;;;;;;;10287278;28;20270;-69
2023/01/24 22:36:37;;;;;;;;;;;;;;;;;;10287292;28;19960;-68
2023/01/24 22:41:34;;;;;;;;;;;;;;;;;;10285613;28;19948;-69
2023/01/24 22:46:32;;;;;;;;;;;;;;;;;;10284036;28;20005;-70
2023/01/24 22:51:30;;;;;;;;;;;;;;;;;;10288279;28;19948;-70
2023/01/24 22:56:28;;;;;;;;;;;;;;;;;;10289990;28;19958;-69
2023/01/24 23:01:26;;;;;;;;;;;;;;;;;;10290305;28;19959;-70
2023/01/24 23:06:24;;;;;;;;;;;;;;;;;;10290898;28;20321;-69
2023/01/24 23:11:22;;;;;;;;;;;;;;;;;;10290771;28;19976;-69
2023/01/24 23:16:18;;;;;;;;;;;;;;;;;;10289597;28;19968;-70
2023/01/24 23:21:30;;;;;;;;;;;;;;;;;;10287941;28;20365;-70
2023/01/24 23:26:28;;;;;;;;;;;;;;;;;;10293649;28;19963;-69
2023/01/24 23:31:26;;;;;;;;;;;;;;;;;;10297284;28;19974;-69
2023/01/24 23:36:23;;;;;;;;;;;;;;;;;;10297634;28;20407;-70
2023/01/24 23:41:21;;;;;;;;;;;;;;;;;;10297067;28;19959;-69
2023/01/24 23:46:19;;;;;;;;;;;;;;;;;;10297962;28;19975;-69
2023/01/24 23:51:17;;;;;;;;;;;;;;;;;;10295715;28;19960;-69
2023/01/24 23:56:15;;;;;;;;;;;;;;;;;;10296138;28;20096;-70
